Greene, IA (50636)

3:41 AM CDT on August 28, 2016 (GMT -0500)
Charles City Municipal | | Change Station
Active Advisory: Special Statement

Elev 1125 ft 43.07 °N, 92.61 °W | Updated 6 minutes ago

Fog
Fog
61 °F
Feels Like 61 °F
N
0
Wind Variable Wind from North

Today
High -- | Low -- °F
--% Chance of Precip.
Yesterday
High -- | Low -- °F
Precip. -- in
Pressure 30.13 in
Visibility 0.2 miles
Clouds Mostly Cloudy 100 ft
Dew Point 61 °F
Humidity 100%
Rainfall 0.00 in
Snow Depth Not available.
6:32 AM 7:51 PM
Waning Crescent, 17% visible
METAR KCCY 280835Z AUTO 00000KT M1/4SM FG BKN001 16/16 A3013 RMK AO2
Pressure 30.13 in
Visibility 0.2 miles
Clouds Mostly Cloudy 100 ft
Dew Point 61 °F
Humidity 100%
Rainfall 0.00 in
Snow Depth Not available.
6:32 AM 7:51 PM
Waning Crescent, 17% visible
METAR KCCY 280835Z AUTO 00000KT M1/4SM FG BKN001 16/16 A3013 RMK AO2

10-Day Weather Forecast

Almanac

Astronomy

Aug. 28, 2016 Rise Set
Actual Time
Civil Twilight
Nautical Twilight
Astronomical Twilight
Moon
Length of Visible Light
Length of Day
Tomorrow will be .
, % of the Moon is Illuminated

Today's Extremes

State Highs State Lows

Community

WunderPhotos

Upload Photos

1,935,540 photos uploaded!

WunderBlog® & News

Nearby

Air Quality

  Air Quality AQ Index Pollutant
Not available.

Snow Depth

Station Depth Elevation

Earthquake Activity

City Distance Mag. Time & Date
Minimum magnitude displayed is 2.5.

Coastal Water Temperatures

Place Temperature

Stations

Nearby Weather Stations

Station Location Temp. Windchill Dew Point Humidity Wind Precip. Elev Updated Type
                   

Watches & Warnings

Special Statement
Issued: 1:16 AM CDT Aug. 28, 2016 – National Weather Service

... Locally dense fog developing this morning...

Fog continues to develop across the area with some patches of
dense fog already reported near Mason City and Ames. The areal
coverage of the dense fog is expected to expand over the next
several hours. Anyone traveling should be prepared for rapid
reductions in visibility.


116 am CDT sun Aug 28 2016

... Locally dense fog developing this morning...

Fog continues to develop across the area with some patches of
dense fog already reported near Mason City and Ames. The areal
coverage of the dense fog is expected to expand over the next
several hours. Anyone traveling should be prepared for rapid
reductions in visibility.